Time;durP1;ratioP1;P1;durP2;ratioP2;P2;SDS_P1;SDS_P2;PMS_P1;PMS_P2;Temp;Humidity;BMP_temperature;BMP_pressure;BME280_temperature;BME280_humidity;BME280_pressure;Samples;Min_cycle;Max_cycle;Signal;HPM_P1;HPM_P2
2022/06/21 00:02:00;;;;;;;;;;;24.90;99.90;;;;;;5106115;28;19908;-71
2022/06/21 00:04:26;;;;;;;;;;;24.90;99.90;;;;;;5105900;28;20436;-71
2022/06/21 00:06:51;;;;;;;;;;;24.90;99.90;;;;;;5108852;28;20395;-71
2022/06/21 00:09:17;;;;;;;;;;;24.80;99.90;;;;;;5110232;28;20589;-71
2022/06/21 00:11:43;;;;;;;;;;;24.90;99.90;;;;;;5100615;28;19990;-70
2022/06/21 00:14:09;;;;;;;;;;;24.90;99.90;;;;;;5109397;28;19908;-71
2022/06/21 00:16:35;;;;;;;;;;;24.90;99.90;;;;;;5102993;28;19908;-70
2022/06/21 00:19:02;;;;;;;;;;;25.00;99.90;;;;;;5107647;28;19908;-68
2022/06/21 00:21:33;;;;;;;;;;;24.90;99.90;;;;;;5115571;28;19912;-70
2022/06/21 00:23:58;;;;;;;;;;;24.90;99.90;;;;;;5111704;28;19969;-70
2022/06/21 00:26:26;;;;;;;;;;;24.90;99.90;;;;;;5112148;28;19912;-72
2022/06/21 00:28:52;;;;;;;;;;;24.80;99.90;;;;;;5116311;28;19907;-70
2022/06/21 00:31:19;;;;;;;;;;;24.80;99.90;;;;;;5114525;28;20373;-71
2022/06/21 00:33:45;;;;;;;;;;;24.80;99.90;;;;;;5106000;28;19919;-71
2022/06/21 00:36:18;;;;;;;;;;;24.80;99.90;;;;;;5114439;28;20314;-72
2022/06/21 00:38:46;;;;;;;;;;;24.80;99.90;;;;;;5113835;28;19907;-71
2022/06/21 00:41:13;;;;;;;;;;;24.90;99.90;;;;;;5103090;28;19919;-69
2022/06/21 00:43:41;;;;;;;;;;;24.90;99.90;;;;;;5110925;28;19912;-71
2022/06/21 00:46:25;;;;;;;;;;;24.90;99.90;;;;;;5110507;28;19911;-71
2022/06/21 00:48:51;;;;;;;;;;;24.90;99.90;;;;;;5102715;28;20655;-71
2022/06/21 00:51:24;;;;;;;;;;;25.00;99.90;;;;;;5102603;28;19987;-70
2022/06/21 00:53:53;;;;;;;;;;;25.00;99.90;;;;;;5108431;28;19998;-70
2022/06/21 00:56:27;;;;;;;;;;;25.00;99.90;;;;;;5109025;28;19907;-72
2022/06/21 00:58:52;;;;;;;;;;;25.00;99.90;;;;;;5107515;28;19916;-70
2022/06/21 01:01:24;;;;;;;;;;;25.00;99.90;;;;;;5106360;28;19908;-69
2022/06/21 01:04:02;;;;;;;;;;;25.00;99.90;;;;;;5108515;28;19911;-70
2022/06/21 01:06:31;;;;;;;;;;;24.90;99.90;;;;;;5107295;28;19931;-69
2022/06/21 01:08:59;;;;;;;;;;;25.00;99.90;;;;;;5109222;28;19999;-71
2022/06/21 01:11:28;;;;;;;;;;;25.00;99.90;;;;;;5111957;28;19907;-70
2022/06/21 01:13:54;;;;;;;;;;;25.00;99.90;;;;;;5113322;28;19907;-71
2022/06/21 01:16:19;;;;;;;;;;;25.00;99.90;;;;;;5112790;28;19914;-73
2022/06/21 01:18:45;;;;;;;;;;;24.90;99.90;;;;;;5108022;28;19907;-71
2022/06/21 01:21:13;;;;;;;;;;;25.00;99.90;;;;;;5111145;28;19994;-71
2022/06/21 01:23:58;;;;;;;;;;;25.00;99.90;;;;;;5111213;28;19912;-70
2022/06/21 01:26:42;;;;;;;;;;;25.00;99.90;;;;;;5114101;28;19927;-70
2022/06/21 01:29:10;;;;;;;;;;;25.00;99.90;;;;;;5106740;28;19974;-71
2022/06/21 01:31:35;;;;;;;;;;;25.00;99.90;;;;;;5110956;28;20285;-71
2022/06/21 01:34:01;;;;;;;;;;;25.00;99.90;;;;;;5103678;28;19917;-69
2022/06/21 01:36:29;;;;;;;;;;;25.00;99.90;;;;;;5113945;28;19904;-71
2022/06/21 01:38:57;;;;;;;;;;;25.00;99.90;;;;;;5103964;28;19961;-69
2022/06/21 01:41:27;;;;;;;;;;;24.90;99.90;;;;;;5112395;28;20381;-71
2022/06/21 01:43:54;;;;;;;;;;;24.90;99.90;;;;;;5106043;28;20381;-70
2022/06/21 01:46:23;;;;;;;;;;;24.80;99.90;;;;;;5111819;28;20312;-70
2022/06/21 01:48:50;;;;;;;;;;;24.90;99.90;;;;;;5102699;28;19907;-69
2022/06/21 01:51:28;;;;;;;;;;;24.90;99.90;;;;;;5107878;28;19912;-69
2022/06/21 01:53:55;;;;;;;;;;;24.80;99.90;;;;;;5110080;28;19915;-69
2022/06/21 01:56:25;;;;;;;;;;;24.80;99.90;;;;;;5106014;28;19955;-71
2022/06/21 01:59:01;;;;;;;;;;;24.80;99.90;;;;;;5109225;28;19914;-71
2022/06/21 02:01:30;;;;;;;;;;;24.80;99.90;;;;;;5105179;28;20292;-69
2022/06/21 02:03:57;;;;;;;;;;;24.80;99.90;;;;;;5108668;28;20013;-69
2022/06/21 02:06:25;;;;;;;;;;;24.80;99.90;;;;;;5110940;28;19919;-68
2022/06/21 02:08:52;;;;;;;;;;;24.80;99.90;;;;;;5106596;28;20002;-68
2022/06/21 02:11:22;;;;;;;;;;;24.70;99.90;;;;;;5103264;28;19916;-70
2022/06/21 02:14:27;;;;;;;;;;;24.70;99.90;;;;;;5109349;28;20046;-70
2022/06/21 02:16:35;;;;;;;;;;;24.70;99.90;;;;;;5109090;28;20016;-70
2022/06/21 02:19:01;;;;;;;;;;;24.70;99.90;;;;;;5106437;28;19998;-70
2022/06/21 02:21:29;;;;;;;;;;;24.60;99.90;;;;;;5109858;28;19952;-71
2022/06/21 02:23:57;;;;;;;;;;;24.70;99.90;;;;;;5107683;28;19928;-70
2022/06/21 02:26:23;;;;;;;;;;;24.70;99.90;;;;;;5112079;28;19912;-69
2022/06/21 02:28:49;;;;;;;;;;;24.60;99.90;;;;;;5103535;28;19914;-71
2022/06/21 02:31:15;;;;;;;;;;;24.60;99.90;;;;;;5110489;28;19912;-70
2022/06/21 02:33:41;;;;;;;;;;;24.70;99.90;;;;;;5108157;28;19922;-70
2022/06/21 02:36:07;;;;;;;;;;;24.70;99.90;;;;;;5110076;28;20319;-70
2022/06/21 02:38:35;;;;;;;;;;;24.70;99.90;;;;;;5109012;28;19904;-70
2022/06/21 02:41:17;;;;;;;;;;;24.80;99.90;;;;;;5108906;28;19912;-70
2022/06/21 02:43:47;;;;;;;;;;;24.80;99.90;;;;;;5109303;28;19911;-68
2022/06/21 02:46:18;;;;;;;;;;;24.80;99.90;;;;;;5110107;28;19916;-69
2022/06/21 02:48:48;;;;;;;;;;;24.80;99.90;;;;;;5108075;28;19903;-70
2022/06/21 02:51:17;;;;;;;;;;;24.80;99.90;;;;;;5109193;28;20384;-70
2022/06/21 02:54:03;;;;;;;;;;;24.60;99.90;;;;;;5109393;28;19904;-70
2022/06/21 02:56:36;;;;;;;;;;;24.60;99.90;;;;;;5109003;28;20003;-69
2022/06/21 02:59:02;;;;;;;;;;;24.70;99.90;;;;;;5110103;28;19943;-67
2022/06/21 03:01:29;;;;;;;;;;;24.70;99.90;;;;;;5115067;28;19939;-69
2022/06/21 03:03:56;;;;;;;;;;;24.80;99.90;;;;;;5116758;28;19923;-69
2022/06/21 03:06:21;;;;;;;;;;;24.70;99.90;;;;;;5121374;28;19917;-68
2022/06/21 03:08:54;;;;;;;;;;;24.60;99.90;;;;;;5119519;28;19982;-70
2022/06/21 03:11:21;;;;;;;;;;;24.60;99.90;;;;;;5118281;28;19918;-70
2022/06/21 03:13:46;;;;;;;;;;;24.60;99.90;;;;;;5121161;28;20002;-68
2022/06/21 03:16:14;;;;;;;;;;;24.60;99.90;;;;;;5120598;28;19908;-67
2022/06/21 03:18:46;;;;;;;;;;;24.50;99.90;;;;;;5119799;28;19948;-69
2022/06/21 03:21:13;;;;;;;;;;;24.60;99.90;;;;;;5114547;28;19954;-70
2022/06/21 03:23:40;;;;;;;;;;;24.60;99.90;;;;;;5104407;28;19912;-69
2022/06/21 03:26:05;;;;;;;;;;;24.60;99.90;;;;;;5109669;28;19916;-71
2022/06/21 03:28:33;;;;;;;;;;;24.50;99.90;;;;;;5108611;28;19904;-70
2022/06/21 03:31:10;;;;;;;;;;;24.60;99.90;;;;;;5105834;28;19911;-71
2022/06/21 03:33:37;;;;;;;;;;;24.60;99.90;;;;;;5107839;28;20395;-72
2022/06/21 03:36:04;;;;;;;;;;;24.60;99.90;;;;;;5108837;28;20280;-71
2022/06/21 03:38:30;;;;;;;;;;;24.70;99.90;;;;;;5106362;28;19907;-71
2022/06/21 03:43:51;;;;;;;;;;;24.60;99.90;;;;;;5105563;28;19972;-69
2022/06/21 03:46:20;;;;;;;;;;;24.60;99.90;;;;;;5105385;28;19908;-69
2022/06/21 03:48:50;;;;;;;;;;;24.60;99.90;;;;;;5102918;28;19907;-71
2022/06/21 03:51:18;;;;;;;;;;;24.50;99.90;;;;;;5105753;28;20392;-69
2022/06/21 03:53:49;;;;;;;;;;;24.50;99.90;;;;;;5107949;28;19914;-70
2022/06/21 03:56:23;;;;;;;;;;;24.40;99.90;;;;;;5109314;28;20199;-68
2022/06/21 03:58:52;;;;;;;;;;;24.40;99.90;;;;;;5105472;28;19908;-70
2022/06/21 04:01:18;;;;;;;;;;;24.50;99.90;;;;;;5109087;28;19927;-71
2022/06/21 04:03:53;;;;;;;;;;;24.60;99.90;;;;;;5109782;28;20321;-70
2022/06/21 04:06:21;;;;;;;;;;;24.60;99.90;;;;;;5117095;28;19904;-69
2022/06/21 04:08:55;;;;;;;;;;;24.70;99.90;;;;;;5112647;28;19911;-70
2022/06/21 04:11:23;;;;;;;;;;;24.80;99.90;;;;;;5107176;28;19963;-70
2022/06/21 04:13:55;;;;;;;;;;;24.80;99.90;;;;;;5109769;28;19960;-70
2022/06/21 04:16:30;;;;;;;;;;;24.80;99.90;;;;;;5108164;28;19961;-70
2022/06/21 04:18:59;;;;;;;;;;;24.80;99.90;;;;;;5105808;28;20381;-68
2022/06/21 04:21:30;;;;;;;;;;;24.60;99.90;;;;;;5108465;28;19908;-71
2022/06/21 04:23:58;;;;;;;;;;;24.40;99.90;;;;;;5102404;28;20091;-70
2022/06/21 04:26:32;;;;;;;;;;;24.30;99.90;;;;;;5106830;28;19915;-69
2022/06/21 04:29:00;;;;;;;;;;;24.20;99.90;;;;;;5103201;28;19970;-70
2022/06/21 04:31:25;;;;;;;;;;;24.50;99.90;;;;;;5101899;28;20002;-69
2022/06/21 04:33:56;;;;;;;;;;;24.60;99.90;;;;;;5107764;28;20022;-71
2022/06/21 04:36:45;;;;;;;;;;;24.70;99.90;;;;;;5109928;28;19908;-71
2022/06/21 04:39:31;;;;;;;;;;;25.00;99.90;;;;;;5090680;28;20022;-70
2022/06/21 04:42:10;;;;;;;;;;;25.10;99.90;;;;;;5109720;28;19907;-70
2022/06/21 04:44:46;;;;;;;;;;;25.20;99.90;;;;;;5110739;28;19980;-70
2022/06/21 04:47:16;;;;;;;;;;;25.30;99.90;;;;;;5108811;28;19914;-69
2022/06/21 04:49:52;;;;;;;;;;;25.40;99.90;;;;;;5108396;28;19908;-71
2022/06/21 04:52:22;;;;;;;;;;;25.50;99.90;;;;;;5110791;28;19965;-71
2022/06/21 04:54:48;;;;;;;;;;;25.40;99.90;;;;;;5109201;28;20292;-71
2022/06/21 04:57:15;;;;;;;;;;;25.60;99.90;;;;;;5106974;28;19908;-69
2022/06/21 04:59:58;;;;;;;;;;;25.60;99.90;;;;;;5108857;28;19969;-71
2022/06/21 05:02:26;;;;;;;;;;;25.50;99.90;;;;;;5106390;28;19915;-71
2022/06/21 05:04:53;;;;;;;;;;;25.30;99.90;;;;;;5111337;28;19907;-71
2022/06/21 05:07:21;;;;;;;;;;;25.30;99.90;;;;;;5097147;28;21858;-70
2022/06/21 05:09:47;;;;;;;;;;;25.30;99.90;;;;;;5106330;28;19908;-71
2022/06/21 05:12:25;;;;;;;;;;;25.40;99.90;;;;;;5108952;28;19945;-70
2022/06/21 05:14:54;;;;;;;;;;;25.30;99.90;;;;;;5110581;28;19915;-70
2022/06/21 05:17:20;;;;;;;;;;;25.30;99.90;;;;;;5109799;28;19938;-71
2022/06/21 05:19:52;;;;;;;;;;;25.30;99.90;;;;;;5111689;28;19908;-69
2022/06/21 05:22:30;;;;;;;;;;;25.40;99.90;;;;;;5107194;28;20277;-68
2022/06/21 05:24:56;;;;;;;;;;;25.40;99.90;;;;;;5110921;28;20258;-71
2022/06/21 05:27:46;;;;;;;;;;;25.50;99.90;;;;;;5111734;28;20338;-72
2022/06/21 05:30:15;;;;;;;;;;;25.70;99.90;;;;;;5106879;28;20393;-70
2022/06/21 05:32:48;;;;;;;;;;;25.70;99.90;;;;;;5098229;28;19908;-71
2022/06/21 05:35:16;;;;;;;;;;;25.60;99.90;;;;;;5099452;28;19944;-68
2022/06/21 05:37:57;;;;;;;;;;;25.40;99.90;;;;;;5099302;28;19958;-71
2022/06/21 05:40:38;;;;;;;;;;;25.30;99.90;;;;;;5097083;28;19925;-70
2022/06/21 05:43:04;;;;;;;;;;;25.30;99.90;;;;;;5095761;28;19912;-69
2022/06/21 05:45:34;;;;;;;;;;;25.40;99.90;;;;;;5103837;28;19942;-66
2022/06/21 05:48:01;;;;;;;;;;;25.30;99.90;;;;;;5105423;28;20269;-71
2022/06/21 05:50:28;;;;;;;;;;;25.40;99.90;;;;;;5106445;28;19911;-70
2022/06/21 05:52:56;;;;;;;;;;;25.50;99.90;;;;;;5108108;28;19907;-66
2022/06/21 05:55:25;;;;;;;;;;;25.60;99.90;;;;;;5107406;28;19908;-67
2022/06/21 05:57:53;;;;;;;;;;;25.70;99.90;;;;;;5105905;28;20004;-69
2022/06/21 06:00:28;;;;;;;;;;;25.90;99.90;;;;;;5104096;28;19919;-67
2022/06/21 06:02:57;;;;;;;;;;;26.10;99.90;;;;;;5099263;28;19912;-71
2022/06/21 06:05:28;;;;;;;;;;;26.20;99.90;;;;;;5099665;28;19995;-70
2022/06/21 06:07:56;;;;;;;;;;;26.30;99.90;;;;;;5105770;28;19907;-68
2022/06/21 06:10:23;;;;;;;;;;;26.50;99.90;;;;;;5111935;28;19904;-69
2022/06/21 06:12:50;;;;;;;;;;;26.60;99.90;;;;;;5105348;28;20071;-70
2022/06/21 06:15:27;;;;;;;;;;;26.60;99.90;;;;;;5100538;28;19912;-69
2022/06/21 06:17:57;;;;;;;;;;;26.70;99.90;;;;;;5105393;28;19916;-69
2022/06/21 06:20:34;;;;;;;;;;;26.70;99.90;;;;;;5110586;28;19927;-72
2022/06/21 06:23:07;;;;;;;;;;;26.70;99.90;;;;;;5107565;28;19927;-68
2022/06/21 06:25:48;;;;;;;;;;;26.60;99.90;;;;;;5104515;28;19908;-70
2022/06/21 06:28:16;;;;;;;;;;;26.70;99.90;;;;;;5105080;28;19939;-66
2022/06/21 06:30:49;;;;;;;;;;;26.70;99.90;;;;;;5108416;28;20388;-67
2022/06/21 06:33:14;;;;;;;;;;;26.70;99.90;;;;;;5066345;28;1209526;-67
2022/06/21 06:35:41;;;;;;;;;;;26.90;99.90;;;;;;5109282;28;19908;-68
2022/06/21 06:38:08;;;;;;;;;;;27.10;99.90;;;;;;5101268;28;20466;-68
2022/06/21 06:40:36;;;;;;;;;;;27.10;99.90;;;;;;5105185;27;20299;-68
2022/06/21 06:43:14;;;;;;;;;;;27.10;99.90;;;;;;5112671;28;19930;-68
2022/06/21 06:45:41;;;;;;;;;;;27.10;99.90;;;;;;5106702;28;19908;-70
2022/06/21 06:48:12;;;;;;;;;;;27.20;99.90;;;;;;5111359;28;20032;-67
2022/06/21 06:50:41;;;;;;;;;;;27.10;99.90;;;;;;5103986;28;20002;-68
2022/06/21 06:53:10;;;;;;;;;;;27.20;99.90;;;;;;5106560;28;19908;-69
2022/06/21 06:55:56;;;;;;;;;;;27.40;99.90;;;;;;5111209;28;20297;-67
2022/06/21 06:58:28;;;;;;;;;;;27.60;99.90;;;;;;5107929;28;20288;-67
2022/06/21 07:00:56;;;;;;;;;;;27.70;99.90;;;;;;5107090;28;19978;-70
2022/06/21 07:03:27;;;;;;;;;;;28.00;99.90;;;;;;5102893;28;19947;-70
2022/06/21 07:06:05;;;;;;;;;;;28.10;99.90;;;;;;5109937;28;19960;-68
2022/06/21 07:08:43;;;;;;;;;;;28.20;99.90;;;;;;5105860;28;19904;-69
2022/06/21 07:11:30;;;;;;;;;;;28.30;99.90;;;;;;5104766;28;19918;-70
2022/06/21 07:13:58;;;;;;;;;;;28.40;99.90;;;;;;5109374;28;19994;-68
2022/06/21 07:16:24;;;;;;;;;;;28.40;99.90;;;;;;5104927;28;19907;-70
2022/06/21 07:18:50;;;;;;;;;;;28.40;99.90;;;;;;5099484;28;19916;-70
2022/06/21 07:21:17;;;;;;;;;;;28.40;99.90;;;;;;5106795;27;19908;-71
2022/06/21 07:23:43;;;;;;;;;;;28.50;99.90;;;;;;5104177;28;19915;-70
2022/06/21 07:26:17;;;;;;;;;;;28.60;99.90;;;;;;5111863;28;19938;-67
2022/06/21 07:28:52;;;;;;;;;;;28.70;99.90;;;;;;5111073;28;19955;-68
2022/06/21 07:31:17;;;;;;;;;;;28.70;99.90;;;;;;5108947;28;19904;-68
2022/06/21 07:33:58;;;;;;;;;;;28.80;99.90;;;;;;5106910;28;19912;-68
2022/06/21 07:36:26;;;;;;;;;;;28.80;99.90;;;;;;5106293;28;19914;-68
2022/06/21 07:39:06;;;;;;;;;;;29.00;99.90;;;;;;5111139;28;20577;-68
2022/06/21 07:41:37;;;;;;;;;;;29.10;99.90;;;;;;5110957;28;19903;-67
2022/06/21 07:44:07;;;;;;;;;;;29.10;99.90;;;;;;5094381;28;20010;-69
2022/06/21 07:46:52;;;;;;;;;;;29.10;99.90;;;;;;5105288;28;19939;-69
2022/06/21 07:49:24;;;;;;;;;;;29.10;99.90;;;;;;5110149;28;19907;-68
2022/06/21 07:51:54;;;;;;;;;;;29.10;99.90;;;;;;5106646;28;20018;-68
2022/06/21 07:54:41;;;;;;;;;;;29.30;99.90;;;;;;5108968;28;20058;-67
2022/06/21 07:57:09;;;;;;;;;;;29.40;99.90;;;;;;5110010;28;19911;-69
2022/06/21 07:59:43;;;;;;;;;;;29.30;99.90;;;;;;5111852;28;19943;-70
2022/06/21 08:08:02;;;;;;;;;;;29.40;99.90;;;;;;5105958;28;20292;-67
2022/06/21 08:10:33;;;;;;;;;;;29.50;99.90;;;;;;5104983;28;20451;-69
2022/06/21 08:12:59;;;;;;;;;;;29.50;99.90;;;;;;5108045;28;19908;-70
2022/06/21 08:15:30;;;;;;;;;;;29.50;99.90;;;;;;5111036;28;19904;-66
2022/06/21 08:18:02;;;;;;;;;;;29.50;99.90;;;;;;5102235;28;19995;-66
2022/06/21 08:20:27;;;;;;;;;;;29.50;99.90;;;;;;5103028;28;19907;-65
2022/06/21 08:22:53;;;;;;;;;;;29.40;99.90;;;;;;5107348;28;20014;-65
2022/06/21 08:25:19;;;;;;;;;;;29.10;99.90;;;;;;5105096;28;19960;-69
2022/06/21 08:27:48;;;;;;;;;;;28.80;99.90;;;;;;5109897;28;19908;-67
2022/06/21 08:30:36;;;;;;;;;;;28.80;99.90;;;;;;5105012;28;19925;-67
2022/06/21 08:33:07;;;;;;;;;;;28.60;99.90;;;;;;5095556;28;20403;-67
2022/06/21 08:35:34;;;;;;;;;;;28.50;99.90;;;;;;5107426;28;19947;-67
2022/06/21 08:38:07;;;;;;;;;;;28.60;99.90;;;;;;5104127;28;20383;-68
2022/06/21 08:40:36;;;;;;;;;;;28.70;99.90;;;;;;5103842;28;19908;-68
2022/06/21 08:43:22;;;;;;;;;;;28.60;99.90;;;;;;5107876;28;20250;-70
2022/06/21 08:46:06;;;;;;;;;;;28.60;99.90;;;;;;5110448;28;19947;-69
2022/06/21 08:48:48;;;;;;;;;;;28.70;99.90;;;;;;5095146;28;19922;-69
2022/06/21 08:51:32;;;;;;;;;;;28.70;99.90;;;;;;5106904;28;19914;-69
2022/06/21 08:53:57;;;;;;;;;;;28.70;99.90;;;;;;5107221;28;19904;-69
2022/06/21 08:56:23;;;;;;;;;;;28.90;99.90;;;;;;5105762;28;19907;-70
2022/06/21 08:59:07;;;;;;;;;;;29.00;99.90;;;;;;5110250;28;19908;-71
2022/06/21 09:01:41;;;;;;;;;;;29.20;99.90;;;;;;5105049;28;19914;-70
2022/06/21 09:04:19;;;;;;;;;;;29.30;99.90;;;;;;5113906;28;19911;-72
2022/06/21 09:06:44;;;;;;;;;;;29.30;99.90;;;;;;5102415;28;20422;-71
2022/06/21 09:09:28;;;;;;;;;;;29.40;99.90;;;;;;5113973;28;20010;-72
2022/06/21 09:11:54;;;;;;;;;;;29.40;99.90;;;;;;5119840;28;20071;-72
2022/06/21 09:14:32;;;;;;;;;;;29.50;99.90;;;;;;5111249;28;20008;-70
2022/06/21 09:17:13;;;;;;;;;;;29.80;99.90;;;;;;5103671;28;19908;-72
2022/06/21 09:19:41;;;;;;;;;;;29.90;99.90;;;;;;5109858;28;20041;-69
2022/06/21 09:22:26;;;;;;;;;;;29.90;99.90;;;;;;5111004;28;19946;-71
2022/06/21 09:24:51;;;;;;;;;;;29.90;99.90;;;;;;5108718;28;19911;-71
2022/06/21 09:27:24;;;;;;;;;;;29.90;99.90;;;;;;5100730;28;20426;-71
2022/06/21 09:29:59;;;;;;;;;;;30.00;99.90;;;;;;5108198;28;20004;-71
2022/06/21 09:32:32;;;;;;;;;;;29.80;99.90;;;;;;5113985;28;19903;-70
2022/06/21 09:35:14;;;;;;;;;;;29.80;99.90;;;;;;5107910;28;20155;-71
2022/06/21 09:37:48;;;;;;;;;;;29.90;99.90;;;;;;5110630;28;20326;-69
2022/06/21 09:40:20;;;;;;;;;;;29.90;99.90;;;;;;5113414;28;19903;-70
2022/06/21 09:42:51;;;;;;;;;;;29.70;99.90;;;;;;5113061;28;20283;-71
2022/06/21 09:45:17;;;;;;;;;;;29.60;99.90;;;;;;5114198;28;19904;-74
2022/06/21 09:47:42;;;;;;;;;;;29.50;99.90;;;;;;5114311;28;19975;-73
2022/06/21 09:50:12;;;;;;;;;;;29.00;99.90;;;;;;5113907;28;19907;-73
2022/06/21 09:52:44;;;;;;;;;;;28.90;99.90;;;;;;5107777;28;20000;-74
2022/06/21 09:55:12;;;;;;;;;;;28.90;99.90;;;;;;5104535;28;20386;-70
2022/06/21 09:58:01;;;;;;;;;;;28.60;99.90;;;;;;5112221;28;19914;-68
2022/06/21 10:00:30;;;;;;;;;;;28.60;99.90;;;;;;5113237;28;19911;-67
2022/06/21 10:03:14;;;;;;;;;;;28.60;99.90;;;;;;5107701;28;19923;-67
2022/06/21 10:05:59;;;;;;;;;;;28.50;99.90;;;;;;5104658;28;20506;-67
2022/06/21 10:08:43;;;;;;;;;;;28.30;99.90;;;;;;5111714;28;19944;-67
2022/06/21 10:11:27;;;;;;;;;;;28.30;99.90;;;;;;5112723;28;20007;-68
2022/06/21 10:14:02;;;;;;;;;;;28.40;99.90;;;;;;5109261;28;19940;-67
2022/06/21 10:16:33;;;;;;;;;;;28.30;99.90;;;;;;5112061;28;19904;-66
2022/06/21 10:19:02;;;;;;;;;;;28.30;99.90;;;;;;5109932;28;20380;-66
2022/06/21 10:21:30;;;;;;;;;;;28.20;99.90;;;;;;5113187;28;20066;-69
2022/06/21 10:24:01;;;;;;;;;;;28.30;99.90;;;;;;5109015;27;19919;-66
2022/06/21 10:26:27;;;;;;;;;;;28.30;99.90;;;;;;5113467;28;20082;-67
2022/06/21 10:28:59;;;;;;;;;;;28.10;99.90;;;;;;5110404;28;20361;-67
2022/06/21 10:31:37;;;;;;;;;;;28.00;99.90;;;;;;5113774;28;20303;-66
2022/06/21 10:34:30;;;;;;;;;;;28.10;99.90;;;;;;5110208;28;19912;-66
2022/06/21 10:37:10;;;;;;;;;;;28.00;99.90;;;;;;5112538;28;19910;-66
2022/06/21 10:39:54;;;;;;;;;;;28.10;99.90;;;;;;5106468;28;19904;-67
2022/06/21 10:45:13;;;;;;;;;;;28.20;99.90;;;;;;5111555;28;20378;-68
2022/06/21 10:47:42;;;;;;;;;;;28.00;99.90;;;;;;5112157;28;19941;-67
2022/06/21 10:50:07;;;;;;;;;;;27.90;99.90;;;;;;5111722;28;19904;-68
2022/06/21 10:52:33;;;;;;;;;;;27.90;99.90;;;;;;5112378;28;20277;-66
2022/06/21 10:55:08;;;;;;;;;;;28.10;99.90;;;;;;5105324;28;19956;-68
2022/06/21 10:57:36;;;;;;;;;;;28.10;99.90;;;;;;5104757;28;19908;-67
2022/06/21 11:03:22;;;;;;;;;;;28.20;99.90;;;;;;5107715;28;20028;-67
2022/06/21 11:06:00;;;;;;;;;;;28.30;99.90;;;;;;5103850;28;19912;-67
2022/06/21 11:08:38;;;;;;;;;;;28.20;99.90;;;;;;5105219;28;20064;-68
2022/06/21 11:11:42;;;;;;;;;;;28.50;99.90;;;;;;5105076;28;20365;-65
2022/06/21 11:14:27;;;;;;;;;;;28.70;99.90;;;;;;5066255;28;19934;-66
2022/06/21 11:17:13;;;;;;;;;;;28.70;99.90;;;;;;5059127;28;19935;-67
2022/06/21 11:19:39;;;;;;;;;;;28.70;99.90;;;;;;5096852;28;19946;-68
2022/06/21 11:22:24;;;;;;;;;;;28.80;99.90;;;;;;5112357;28;19916;-67
2022/06/21 11:24:56;;;;;;;;;;;28.90;99.90;;;;;;5105967;28;19919;-65
2022/06/21 11:27:30;;;;;;;;;;;28.80;99.90;;;;;;5106381;28;19908;-67
2022/06/21 11:30:14;;;;;;;;;;;28.70;99.90;;;;;;5111933;28;19991;-66
2022/06/21 11:32:56;;;;;;;;;;;28.60;99.90;;;;;;5112176;28;19904;-65
2022/06/21 11:35:22;;;;;;;;;;;28.40;99.90;;;;;;5106903;28;20682;-64
2022/06/21 11:38:01;;;;;;;;;;;28.20;99.90;;;;;;5109253;28;19983;-67
2022/06/21 11:40:27;;;;;;;;;;;28.30;99.90;;;;;;5111879;28;19904;-66
2022/06/21 11:42:55;;;;;;;;;;;28.60;99.90;;;;;;5112294;28;20391;-65
2022/06/21 11:45:39;;;;;;;;;;;28.60;99.90;;;;;;5111113;28;19915;-66
2022/06/21 11:48:11;;;;;;;;;;;28.80;99.90;;;;;;5104100;28;19907;-69
2022/06/21 11:50:36;;;;;;;;;;;29.00;99.90;;;;;;5111413;28;19990;-68
2022/06/21 11:53:21;;;;;;;;;;;28.70;99.90;;;;;;5110520;28;20016;-70
2022/06/21 11:56:05;;;;;;;;;;;28.60;99.90;;;;;;5102272;28;19915;-67
2022/06/21 11:58:30;;;;;;;;;;;28.80;99.90;;;;;;5100113;28;19914;-68
2022/06/21 12:00:59;;;;;;;;;;;28.90;99.90;;;;;;5102941;28;19912;-67
2022/06/21 12:03:42;;;;;;;;;;;28.90;99.90;;;;;;5111876;28;20013;-68
2022/06/21 12:06:13;;;;;;;;;;;29.10;99.90;;;;;;5095828;28;20292;-66
2022/06/21 12:08:58;;;;;;;;;;;29.10;99.90;;;;;;5111408;27;19950;-67
2022/06/21 12:11:38;;;;;;;;;;;29.30;99.90;;;;;;5111388;28;19942;-69
2022/06/21 12:14:13;;;;;;;;;;;29.20;99.90;;;;;;5105004;28;19912;-67
2022/06/21 12:16:56;;;;;;;;;;;29.10;99.90;;;;;;5111348;28;19904;-68
2022/06/21 12:19:23;;;;;;;;;;;28.90;99.90;;;;;;5111498;28;19954;-67
2022/06/21 12:21:57;;;;;;;;;;;29.10;99.90;;;;;;5112365;28;19949;-68
2022/06/21 12:24:24;;;;;;;;;;;29.10;99.90;;;;;;5106346;28;19918;-67
2022/06/21 12:26:50;;;;;;;;;;;29.10;99.90;;;;;;5106027;28;20388;-68
2022/06/21 12:29:17;;;;;;;;;;;29.30;99.90;;;;;;5106217;28;19907;-67
2022/06/21 12:31:47;;;;;;;;;;;29.00;99.90;;;;;;5107552;28;19908;-67
2022/06/21 12:34:36;;;;;;;;;;;29.20;99.90;;;;;;5105572;28;19912;-69
2022/06/21 12:37:04;;;;;;;;;;;29.20;99.90;;;;;;5095909;28;21181;-70
2022/06/21 12:39:35;;;;;;;;;;;29.40;99.90;;;;;;5108946;28;20360;-68
2022/06/21 12:42:13;;;;;;;;;;;29.30;99.90;;;;;;5104261;28;20373;-70
2022/06/21 12:44:58;;;;;;;;;;;29.00;99.90;;;;;;5102601;28;19923;-69
2022/06/21 12:47:33;;;;;;;;;;;28.80;99.90;;;;;;5076383;28;19915;-73
2022/06/21 12:50:08;;;;;;;;;;;28.80;99.90;;;;;;5111373;28;19904;-71
2022/06/21 12:52:42;;;;;;;;;;;28.80;99.90;;;;;;5113443;28;19949;-72
2022/06/21 12:55:25;;;;;;;;;;;28.80;99.90;;;;;;5106273;28;20571;-70
2022/06/21 12:58:09;;;;;;;;;;;28.90;99.90;;;;;;5108869;28;20421;-70
2022/06/21 13:00:43;;;;;;;;;;;29.10;99.90;;;;;;5097900;28;19996;-71
2022/06/21 13:03:20;;;;;;;;;;;29.10;99.90;;;;;;5111222;28;19920;-71
2022/06/21 13:05:49;;;;;;;;;;;29.30;99.90;;;;;;5107576;28;19916;-71
2022/06/21 13:08:33;;;;;;;;;;;29.30;99.90;;;;;;5094665;28;19904;-71
2022/06/21 13:11:14;;;;;;;;;;;29.30;99.90;;;;;;5094319;28;19943;-70
2022/06/21 13:13:58;;;;;;;;;;;29.40;99.90;;;;;;5108691;28;19908;-70
2022/06/21 13:16:43;;;;;;;;;;;29.40;99.90;;;;;;5113621;28;20003;-68
2022/06/21 13:19:27;;;;;;;;;;;29.30;99.90;;;;;;5112061;28;19961;-70
2022/06/21 13:22:11;;;;;;;;;;;29.40;99.90;;;;;;5108876;28;19908;-70
2022/06/21 13:24:55;;;;;;;;;;;29.50;99.90;;;;;;5108277;28;19907;-71
2022/06/21 13:27:21;;;;;;;;;;;29.50;99.90;;;;;;5114592;28;19928;-70
2022/06/21 13:29:47;;;;;;;;;;;29.60;99.90;;;;;;5113957;28;20300;-72
2022/06/21 13:32:28;;;;;;;;;;;29.60;99.90;;;;;;5113047;28;19911;-70
2022/06/21 13:34:56;;;;;;;;;;;29.40;99.90;;;;;;5108972;27;19911;-71
2022/06/21 13:37:28;;;;;;;;;;;29.30;99.90;;;;;;5107636;28;19918;-70
2022/06/21 13:40:20;;;;;;;;;;;29.30;99.90;;;;;;5110468;28;19908;-70
2022/06/21 13:43:05;;;;;;;;;;;29.40;99.90;;;;;;5084914;28;19908;-70
2022/06/21 13:45:49;;;;;;;;;;;29.40;99.90;;;;;;5109603;28;19908;-70
2022/06/21 13:48:15;;;;;;;;;;;28.90;99.90;;;;;;5107016;28;19907;-70
2022/06/21 13:50:40;;;;;;;;;;;28.90;99.90;;;;;;5113737;28;19965;-70
2022/06/21 13:53:13;;;;;;;;;;;28.90;99.90;;;;;;5114239;28;19951;-69
2022/06/21 13:55:49;;;;;;;;;;;29.00;99.90;;;;;;5104799;28;20340;-71
2022/06/21 13:58:19;;;;;;;;;;;28.90;99.90;;;;;;5106254;28;20002;-73
2022/06/21 14:00:59;;;;;;;;;;;28.60;99.90;;;;;;5109729;28;19911;-70
2022/06/21 14:03:38;;;;;;;;;;;28.70;99.90;;;;;;5109591;28;19912;-72
2022/06/21 14:06:18;;;;;;;;;;;28.80;99.90;;;;;;5105323;28;19912;-71
2022/06/21 14:09:04;;;;;;;;;;;28.50;99.90;;;;;;5107376;28;19950;-71
2022/06/21 14:11:44;;;;;;;;;;;28.50;99.90;;;;;;5110196;28;19954;-71
2022/06/21 14:14:28;;;;;;;;;;;28.20;99.90;;;;;;5101711;28;19914;-70
2022/06/21 14:16:58;;;;;;;;;;;28.20;99.90;;;;;;5099862;28;19914;-71
2022/06/21 14:19:31;;;;;;;;;;;28.40;99.90;;;;;;5108213;28;20288;-71
2022/06/21 14:22:23;;;;;;;;;;;28.40;99.90;;;;;;5108333;28;20380;-70
2022/06/21 14:24:55;;;;;;;;;;;28.30;99.90;;;;;;5103009;28;19916;-70
2022/06/21 14:27:25;;;;;;;;;;;28.00;99.90;;;;;;5111527;28;19907;-71
2022/06/21 14:30:13;;;;;;;;;;;27.90;99.90;;;;;;5101298;28;20000;-70
2022/06/21 14:32:46;;;;;;;;;;;27.70;99.90;;;;;;5096931;28;20006;-70
2022/06/21 14:35:16;;;;;;;;;;;27.70;99.90;;;;;;5107526;28;19915;-68
2022/06/21 14:38:02;;;;;;;;;;;27.90;99.90;;;;;;5108561;28;19908;-70
2022/06/21 14:41:06;;;;;;;;;;;27.90;99.90;;;;;;5086190;28;20445;-69
2022/06/21 14:43:51;;;;;;;;;;;28.20;99.90;;;;;;5056954;28;19919;-70
2022/06/21 14:46:35;;;;;;;;;;;28.30;99.90;;;;;;5068677;28;20003;-69
2022/06/21 14:49:06;;;;;;;;;;;28.20;99.90;;;;;;5096029;28;19994;-68
2022/06/21 14:51:47;;;;;;;;;;;28.40;99.90;;;;;;5112690;28;19908;-69
2022/06/21 14:54:21;;;;;;;;;;;28.50;99.90;;;;;;5111895;28;19919;-73
2022/06/21 14:56:52;;;;;;;;;;;28.60;99.90;;;;;;5112741;28;19930;-73
2022/06/21 14:59:24;;;;;;;;;;;28.70;99.90;;;;;;5108069;28;19914;-69
2022/06/21 15:01:52;;;;;;;;;;;28.70;99.90;;;;;;5112518;28;19904;-70
2022/06/21 15:04:33;;;;;;;;;;;28.70;99.90;;;;;;5108223;28;20002;-69